createdAt,value
2022-09-29T00:00:54.784Z,13.75
2022-09-29T00:03:22.602Z,13.82
2022-09-29T00:05:51.153Z,16.17
2022-09-29T00:08:18.945Z,13.10
2022-09-29T00:10:46.421Z,13.73
2022-09-29T00:13:14.185Z,14.43
2022-09-29T00:15:41.586Z,17.17
2022-09-29T00:18:14.124Z,14.35
2022-09-29T00:20:41.790Z,13.05
2022-09-29T00:23:08.939Z,12.85
2022-09-29T00:25:36.078Z,12.45
2022-09-29T00:28:03.308Z,10.93
2022-09-29T00:30:30.466Z,10.60
2022-09-29T00:32:57.827Z,10.90
2022-09-29T00:35:25.111Z,10.98
2022-09-29T00:37:52.240Z,11.90
2022-09-29T00:40:19.489Z,11.82
2022-09-29T00:42:46.811Z,12.38
2022-09-29T00:45:24.833Z,15.00
2022-09-29T00:48:10.586Z,13.45
2022-09-29T00:50:40.987Z,14.05
2022-09-29T00:53:12.839Z,19.25
2022-09-29T00:55:45.534Z,21.85
2022-09-29T00:58:16.723Z,17.85
2022-09-29T01:00:44.015Z,18.30
2022-09-29T01:03:14.062Z,18.63
2022-09-29T01:05:43.792Z,19.02
2022-09-29T01:08:17.213Z,17.67
2022-09-29T01:10:44.775Z,14.23
2022-09-29T01:13:12.167Z,14.32
2022-09-29T01:15:39.781Z,15.15
2022-09-29T01:18:08.054Z,14.68
2022-09-29T01:20:36.352Z,13.98
2022-09-29T01:23:03.478Z,12.20
2022-09-29T01:25:40.432Z,10.30
2022-09-29T01:28:33.059Z,10.25
2022-09-29T01:31:12.309Z,10.73
2022-09-29T01:33:42.485Z,11.60
2022-09-29T01:36:09.634Z,9.73
2022-09-29T01:38:55.668Z,9.98
2022-09-29T01:41:25.982Z,11.40
2022-09-29T01:43:53.126Z,9.43
2022-09-29T01:46:23.439Z,11.98
2022-09-29T01:48:52.993Z,10.17
2022-09-29T01:51:22.278Z,12.05
2022-09-29T01:53:51.037Z,10.25
2022-09-29T01:56:38.441Z,12.57
2022-09-29T01:59:10.522Z,10.18
2022-09-29T02:01:39.735Z,10.20
2022-09-29T02:04:14.433Z,14.35
2022-09-29T02:06:46.247Z,13.90
2022-09-29T02:09:16.042Z,14.82
2022-09-29T02:11:43.495Z,17.40
2022-09-29T02:14:17.484Z,15.50
2022-09-29T02:16:52.261Z,14.70
2022-09-29T02:19:21.647Z,14.93
2022-09-29T02:21:49.076Z,15.40
2022-09-29T02:24:16.398Z,15.18
2022-09-29T02:26:45.359Z,15.10
2022-09-29T02:29:12.511Z,17.60
2022-09-29T02:31:39.922Z,16.05
2022-09-29T02:34:11.759Z,20.63
2022-09-29T02:36:45.630Z,15.32
2022-09-29T02:39:31.886Z,19.15
2022-09-29T02:42:05.191Z,18.17
2022-09-29T02:44:53.740Z,15.52
2022-09-29T02:47:39.664Z,14.95
2022-09-29T02:50:07.938Z,18.17
2022-09-29T02:52:38.222Z,18.50
2022-09-29T02:55:12.495Z,18.00
2022-09-29T02:57:51.963Z,16.92
2022-09-29T03:00:20.045Z,18.77
2022-09-29T03:02:47.322Z,18.85
2022-09-29T03:05:18.788Z,18.27
2022-09-29T03:07:46.212Z,16.35
2022-09-29T03:10:14.058Z,17.85
2022-09-29T03:12:41.345Z,17.33
2022-09-29T03:15:09.177Z,19.02
2022-09-29T03:17:36.479Z,18.00
2022-09-29T03:20:04.094Z,20.42
2022-09-29T03:22:31.440Z,20.27
2022-09-29T03:24:58.603Z,18.85
2022-09-29T03:27:25.794Z,15.77
2022-09-29T03:29:53.121Z,15.82
2022-09-29T03:32:20.251Z,16.98
2022-09-29T03:34:47.446Z,16.20
2022-09-29T03:37:14.698Z,14.75
2022-09-29T03:39:41.849Z,14.77
2022-09-29T03:42:09.445Z,14.45
2022-09-29T03:44:36.724Z,15.07
2022-09-29T03:47:03.924Z,17.70
2022-09-29T03:49:31.071Z,15.40
2022-09-29T03:51:58.348Z,18.33
2022-09-29T03:54:27.645Z,16.48
2022-09-29T03:56:54.815Z,16.23
2022-09-29T03:59:22.086Z,13.38
2022-09-29T04:01:49.835Z,14.18
2022-09-29T04:04:17.036Z,13.68
2022-09-29T04:06:44.249Z,14.05
2022-09-29T04:09:11.677Z,13.25
2022-09-29T04:11:38.893Z,11.73
2022-09-29T04:14:06.349Z,19.00
2022-09-29T04:16:33.848Z,11.65
2022-09-29T04:19:01.071Z,13.95
2022-09-29T04:21:28.311Z,12.25
2022-09-29T04:23:55.469Z,10.85
2022-09-29T04:26:22.695Z,13.25
2022-09-29T04:28:50.061Z,12.57
2022-09-29T04:31:17.245Z,12.90
2022-09-29T04:33:44.421Z,12.93
2022-09-29T04:36:11.753Z,13.68
2022-09-29T04:38:38.901Z,14.27
2022-09-29T04:41:06.176Z,17.90
2022-09-29T04:43:33.478Z,15.15
2022-09-29T04:46:04.917Z,11.60
2022-09-29T04:48:35.670Z,12.40
2022-09-29T04:51:03.679Z,18.38
2022-09-29T04:53:30.866Z,11.90
2022-09-29T04:55:58.007Z,11.27
2022-09-29T04:58:25.251Z,13.07
2022-09-29T05:00:52.471Z,15.60
2022-09-29T05:03:19.723Z,16.17
2022-09-29T05:05:46.927Z,11.27
2022-09-29T05:08:14.140Z,13.27
2022-09-29T05:10:41.349Z,11.45
2022-09-29T05:13:08.573Z,11.40
2022-09-29T05:15:35.730Z,12.32
2022-09-29T05:18:03.620Z,14.95
2022-09-29T05:20:39.895Z,13.88
2022-09-29T05:23:10.508Z,15.98
2022-09-29T05:25:38.730Z,14.27
2022-09-29T05:28:05.875Z,18.98
2022-09-29T05:30:33.020Z,19.75
2022-09-29T05:33:00.234Z,18.83
2022-09-29T05:35:27.365Z,25.92
2022-09-29T05:37:54.755Z,20.02
2022-09-29T05:40:24.347Z,19.60
2022-09-29T05:42:52.274Z,23.63
2022-09-29T05:45:19.503Z,18.67
2022-09-29T05:47:47.099Z,24.13
2022-09-29T05:50:14.318Z,27.08
2022-09-29T05:52:42.149Z,27.15
2022-09-29T05:55:10.723Z,17.13
2022-09-29T05:57:37.931Z,17.15
2022-09-29T06:00:06.248Z,17.00
2022-09-29T06:02:34.256Z,20.92
2022-09-29T06:05:01.505Z,25.45
2022-09-29T06:07:28.642Z,17.55
2022-09-29T06:09:55.945Z,18.33
2022-09-29T06:12:23.215Z,17.50
2022-09-29T06:14:50.438Z,16.83
2022-09-29T06:17:17.743Z,12.00
2022-09-29T06:19:45.123Z,17.83
2022-09-29T06:22:12.318Z,18.23
2022-09-29T06:24:39.584Z,14.15
2022-09-29T06:27:06.782Z,13.35
2022-09-29T06:29:33.961Z,16.17
2022-09-29T06:32:01.323Z,16.40
2022-09-29T06:34:28.565Z,16.23
2022-09-29T06:37:14.454Z,16.55
2022-09-29T06:39:41.659Z,14.57
2022-09-29T06:42:08.827Z,12.77
2022-09-29T06:44:36.041Z,12.63
2022-09-29T06:47:03.216Z,15.63
2022-09-29T06:49:30.419Z,13.38
2022-09-29T06:51:57.632Z,15.65
2022-09-29T06:54:25.283Z,12.57
2022-09-29T06:56:53.446Z,14.40
2022-09-29T06:59:20.810Z,14.05
2022-09-29T07:01:50.770Z,14.48
2022-09-29T07:04:19.172Z,11.38
2022-09-29T07:06:46.496Z,14.70
2022-09-29T07:09:16.385Z,12.25
2022-09-29T07:11:47.668Z,12.75
2022-09-29T07:14:15.856Z,15.43
2022-09-29T07:16:43.468Z,13.38
2022-09-29T07:19:11.263Z,10.77
2022-09-29T07:21:38.516Z,17.10
2022-09-29T07:24:05.780Z,15.52
2022-09-29T07:26:33.230Z,15.95
2022-09-29T07:29:00.414Z,12.93
2022-09-29T07:31:28.256Z,17.98
2022-09-29T07:33:57.196Z,16.75
2022-09-29T07:36:25.213Z,12.93
2022-09-29T07:38:52.712Z,10.40
2022-09-29T07:41:21.839Z,10.65
2022-09-29T07:43:49.055Z,8.65
2022-09-29T07:46:16.270Z,9.68
2022-09-29T07:48:43.761Z,8.70
2022-09-29T07:51:12.515Z,9.60
2022-09-29T07:53:40.153Z,9.02
2022-09-29T07:56:08.883Z,7.85
2022-09-29T07:58:37.504Z,11.48
2022-09-29T08:01:06.629Z,8.60
2022-09-29T08:03:34.549Z,9.57
2022-09-29T08:06:01.688Z,10.13
2022-09-29T08:08:28.857Z,10.25
2022-09-29T08:11:06.145Z,9.43
2022-09-29T08:13:34.591Z,10.23
2022-09-29T08:16:02.379Z,7.70
2022-09-29T08:18:30.158Z,7.65
2022-09-29T08:20:59.999Z,9.75
2022-09-29T08:23:31.896Z,11.07
2022-09-29T08:26:02.777Z,10.45
2022-09-29T08:28:32.549Z,11.05
2022-09-29T08:31:08.201Z,11.70
2022-09-29T08:33:35.797Z,8.13
2022-09-29T08:36:05.821Z,12.00
2022-09-29T08:38:33.395Z,12.90
2022-09-29T08:41:04.209Z,7.88
2022-09-29T08:43:38.555Z,7.38
2022-09-29T08:46:11.748Z,10.88
2022-09-29T08:48:53.941Z,8.52
2022-09-29T08:51:41.632Z,8.88
2022-09-29T08:54:38.626Z,7.75
2022-09-29T08:57:07.050Z,9.07
2022-09-29T08:59:34.459Z,5.30
2022-09-29T09:02:20.422Z,6.47
2022-09-29T09:04:48.062Z,5.72
2022-09-29T09:07:30.858Z,6.80
2022-09-29T09:10:22.017Z,4.78
2022-09-29T09:13:04.204Z,6.15
2022-09-29T09:15:50.011Z,5.72
2022-09-29T09:18:38.781Z,7.18
2022-09-29T09:21:08.919Z,6.47
2022-09-29T09:23:36.045Z,6.70
2022-09-29T09:26:03.738Z,8.70
2022-09-29T09:28:36.028Z,5.35
2022-09-29T09:31:32.729Z,4.93
2022-09-29T09:34:06.984Z,6.32
2022-09-29T09:36:38.678Z,4.70
2022-09-29T09:39:11.466Z,6.20
2022-09-29T09:41:39.080Z,8.18
2022-09-29T09:44:17.512Z,6.10
2022-09-29T09:46:49.663Z,8.27
2022-09-29T09:49:35.487Z,8.63
2022-09-29T09:52:03.655Z,5.28
2022-09-29T09:54:33.902Z,4.97
2022-09-29T09:57:10.378Z,7.43
2022-09-29T09:59:40.260Z,6.10
2022-09-29T10:02:14.449Z,6.50
2022-09-29T10:04:41.641Z,4.43
2022-09-29T10:07:08.807Z,3.97
2022-09-29T10:09:36.139Z,4.28
2022-09-29T10:12:03.289Z,3.58
2022-09-29T10:14:30.782Z,5.20
2022-09-29T10:17:01.608Z,4.07
2022-09-29T10:19:47.676Z,4.50
2022-09-29T10:22:15.656Z,3.55
2022-09-29T10:24:44.274Z,3.35
2022-09-29T10:27:12.038Z,4.25
2022-09-29T10:29:40.316Z,2.92
2022-09-29T10:32:10.004Z,3.85
2022-09-29T10:34:38.704Z,2.63
2022-09-29T10:37:07.281Z,2.80
2022-09-29T10:39:39.217Z,2.80
2022-09-29T10:42:16.820Z,3.00
2022-09-29T10:44:44.226Z,4.07
2022-09-29T10:47:15.899Z,2.75
2022-09-29T10:49:43.291Z,3.65
2022-09-29T10:52:26.892Z,6.80
2022-09-29T10:55:00.244Z,3.35
2022-09-29T10:57:28.774Z,3.70
2022-09-29T10:59:57.278Z,3.00
2022-09-29T11:02:26.671Z,3.80
2022-09-29T11:04:54.896Z,3.72
2022-09-29T11:07:22.216Z,4.22
2022-09-29T11:09:51.030Z,5.03
2022-09-29T11:12:29.340Z,4.85
2022-09-29T11:14:56.632Z,7.22
2022-09-29T11:17:27.219Z,3.88
2022-09-29T11:19:55.622Z,9.20
2022-09-29T11:22:22.885Z,7.40
2022-09-29T11:24:56.914Z,6.95
2022-09-29T11:27:26.939Z,7.90
2022-09-29T11:29:56.897Z,6.88
2022-09-29T11:32:24.036Z,6.93
2022-09-29T11:35:06.239Z,6.15
2022-09-29T11:37:51.738Z,5.35
2022-09-29T11:40:25.632Z,4.95
2022-09-29T11:42:57.130Z,4.75
2022-09-29T11:45:30.130Z,4.07
2022-09-29T11:48:03.047Z,3.22
2022-09-29T11:50:38.507Z,8.65
2022-09-29T11:53:08.706Z,5.35
2022-09-29T11:55:35.840Z,7.03
2022-09-29T11:58:13.206Z,8.57
2022-09-29T12:00:40.360Z,5.03
2022-09-29T12:03:26.571Z,6.18
2022-09-29T12:06:13.633Z,5.65
2022-09-29T12:08:56.495Z,6.05
2022-09-29T12:14:30.853Z,8.95
2022-09-29T12:16:59.780Z,7.00
2022-09-29T12:19:29.062Z,7.03
2022-09-29T12:21:57.646Z,7.78
2022-09-29T12:24:27.801Z,5.60
2022-09-29T12:26:55.451Z,7.13
2022-09-29T12:29:25.755Z,7.47
2022-09-29T12:31:54.539Z,8.23
2022-09-29T12:34:24.568Z,9.75
2022-09-29T12:37:02.449Z,9.35
2022-09-29T12:39:38.550Z,8.93
2022-09-29T12:42:08.590Z,8.68
2022-09-29T12:44:41.350Z,7.28
2022-09-29T12:47:20.927Z,6.65
2022-09-29T12:49:56.922Z,8.00
2022-09-29T12:52:29.434Z,6.72
2022-09-29T12:55:00.372Z,7.05
2022-09-29T12:57:32.835Z,3.70
2022-09-29T13:00:03.010Z,9.77
2022-09-29T13:02:56.196Z,5.13
2022-09-29T13:05:44.902Z,5.40
2022-09-29T13:08:41.354Z,5.70
2022-09-29T13:11:15.942Z,9.70
2022-09-29T13:13:48.158Z,3.53
2022-09-29T13:16:23.494Z,4.57
2022-09-29T13:19:06.634Z,7.72
2022-09-29T13:21:43.318Z,6.05
2022-09-29T13:24:10.585Z,7.40
2022-09-29T13:26:53.611Z,5.13
2022-09-29T13:29:25.647Z,7.30
2022-09-29T13:31:53.919Z,3.92
2022-09-29T13:34:32.716Z,4.70
2022-09-29T13:37:08.985Z,4.45
2022-09-29T13:39:36.601Z,4.25
2022-09-29T13:42:27.202Z,4.28
2022-09-29T13:45:31.284Z,3.97
2022-09-29T13:48:02.017Z,5.18
2022-09-29T13:50:45.966Z,5.15
2022-09-29T13:53:25.587Z,3.97
2022-09-29T13:55:56.785Z,4.93
2022-09-29T13:58:30.495Z,5.15
2022-09-29T14:00:59.458Z,3.75
2022-09-29T14:03:29.454Z,5.25
2022-09-29T14:05:57.990Z,3.72
2022-09-29T14:08:28.426Z,4.63
2022-09-29T14:11:01.605Z,7.53
2022-09-29T14:13:43.482Z,6.78
2022-09-29T14:16:38.045Z,6.43
2022-09-29T14:19:09.804Z,6.88
2022-09-29T14:21:46.394Z,8.13
2022-09-29T14:24:42.867Z,7.13
2022-09-29T14:27:28.215Z,6.43
2022-09-29T14:30:04.655Z,8.77
2022-09-29T14:32:42.617Z,4.82
2022-09-29T14:35:19.104Z,6.05
2022-09-29T14:37:46.858Z,5.85
2022-09-29T14:40:29.732Z,4.10
2022-09-29T14:43:03.875Z,5.57
2022-09-29T14:45:52.723Z,5.10
2022-09-29T14:48:45.907Z,5.40
2022-09-29T14:51:39.657Z,5.90
2022-09-29T14:54:06.771Z,5.78
2022-09-29T14:56:52.810Z,4.97
2022-09-29T14:59:29.372Z,5.63
2022-09-29T15:01:59.679Z,6.28
2022-09-29T15:04:28.057Z,5.47
2022-09-29T15:06:55.219Z,6.78
2022-09-29T15:09:25.040Z,6.13
2022-09-29T15:11:58.164Z,4.25
2022-09-29T15:14:26.891Z,4.40
2022-09-29T15:16:57.515Z,5.55
2022-09-29T15:19:43.034Z,4.68
2022-09-29T15:22:31.211Z,4.78
2022-09-29T15:25:10.832Z,6.63
2022-09-29T15:27:40.305Z,7.38
2022-09-29T15:30:14.216Z,6.50
2022-09-29T15:32:41.400Z,7.97
2022-09-29T15:35:09.686Z,7.03
2022-09-29T15:37:56.431Z,5.75
2022-09-29T15:40:24.870Z,6.50
2022-09-29T15:42:55.604Z,5.25
2022-09-29T15:45:27.593Z,6.55
2022-09-29T15:48:08.249Z,6.80
2022-09-29T15:50:42.842Z,5.13
2022-09-29T15:53:11.204Z,5.70
2022-09-29T15:55:38.757Z,5.78
2022-09-29T15:58:25.088Z,8.52
2022-09-29T16:00:57.773Z,7.72
2022-09-29T16:03:37.380Z,5.20
2022-09-29T16:06:06.329Z,6.40
2022-09-29T16:08:40.037Z,5.90
2022-09-29T16:11:19.941Z,13.15
2022-09-29T16:13:49.807Z,8.98
2022-09-29T16:16:17.186Z,9.07
2022-09-29T16:18:48.886Z,9.20
2022-09-29T16:21:21.507Z,7.20
2022-09-29T16:24:08.948Z,7.68
2022-09-29T16:26:37.673Z,9.10
2022-09-29T16:29:10.872Z,8.35
2022-09-29T16:31:42.205Z,7.90
2022-09-29T16:34:24.006Z,7.63
2022-09-29T16:36:52.688Z,10.52
2022-09-29T16:39:21.288Z,9.88
2022-09-29T16:41:49.516Z,11.93
2022-09-29T16:44:19.702Z,10.45
2022-09-29T16:46:51.890Z,9.40
2022-09-29T16:49:22.313Z,13.55
2022-09-29T16:51:50.585Z,11.10
2022-09-29T16:54:21.027Z,11.02
2022-09-29T16:56:49.554Z,11.07
2022-09-29T16:59:18.050Z,11.00
2022-09-29T17:01:48.979Z,9.57
2022-09-29T17:04:16.355Z,9.35
2022-09-29T17:06:48.440Z,10.27
2022-09-29T17:09:19.311Z,10.25
2022-09-29T17:11:48.564Z,10.68
2022-09-29T17:14:17.040Z,10.93
2022-09-29T17:16:45.181Z,10.88
2022-09-29T17:19:12.697Z,9.52
2022-09-29T17:21:39.916Z,12.45
2022-09-29T17:24:07.318Z,12.98
2022-09-29T17:26:57.487Z,9.80
2022-09-29T17:29:25.115Z,10.32
2022-09-29T17:31:52.315Z,11.73
2022-09-29T17:34:29.126Z,13.52
2022-09-29T17:36:58.272Z,9.70
2022-09-29T17:39:25.443Z,11.35
2022-09-29T17:41:53.022Z,11.48
2022-09-29T17:44:20.455Z,12.57
2022-09-29T17:46:47.981Z,10.68
2022-09-29T17:49:16.499Z,12.63
2022-09-29T17:51:43.692Z,13.30
2022-09-29T17:54:10.891Z,14.27
2022-09-29T17:56:40.945Z,15.82
2022-09-29T17:59:10.129Z,14.07
2022-09-29T18:01:38.312Z,17.20
2022-09-29T18:04:08.066Z,16.02
2022-09-29T18:06:37.774Z,16.02
2022-09-29T18:09:16.174Z,15.35
2022-09-29T18:11:43.366Z,13.98
2022-09-29T18:14:10.645Z,16.30
2022-09-29T18:16:37.954Z,15.13
2022-09-29T18:19:05.543Z,19.70
2022-09-29T18:21:33.759Z,14.90
2022-09-29T18:24:01.168Z,17.23
2022-09-29T18:26:28.415Z,16.23
2022-09-29T18:28:55.658Z,24.02
2022-09-29T18:31:24.923Z,16.52
2022-09-29T18:33:52.300Z,14.75
2022-09-29T18:36:19.528Z,15.48
2022-09-29T18:38:46.888Z,15.32
2022-09-29T18:41:16.119Z,16.02
2022-09-29T18:43:43.617Z,16.15
2022-09-29T18:46:11.813Z,16.23
2022-09-29T18:48:38.992Z,15.60
2022-09-29T18:51:06.235Z,16.45
2022-09-29T18:53:33.814Z,16.73
2022-09-29T18:56:03.102Z,17.85
2022-09-29T18:58:30.739Z,18.85
2022-09-29T19:00:58.940Z,18.85
2022-09-29T19:03:27.782Z,19.95
2022-09-29T19:05:55.661Z,19.38
2022-09-29T19:08:23.345Z,21.33
2022-09-29T19:10:51.656Z,18.80
2022-09-29T19:13:19.322Z,19.75
2022-09-29T19:15:47.007Z,20.33
2022-09-29T19:18:22.412Z,21.90
2022-09-29T19:20:54.384Z,23.55
2022-09-29T19:23:21.867Z,19.98
2022-09-29T19:25:49.751Z,22.92
2022-09-29T19:28:17.771Z,22.75
2022-09-29T19:30:45.483Z,20.02
2022-09-29T19:33:14.632Z,21.83
2022-09-29T19:35:45.325Z,18.63
2022-09-29T19:38:12.517Z,17.27
2022-09-29T19:40:39.736Z,18.42
2022-09-29T19:43:07.079Z,19.80
2022-09-29T19:45:37.810Z,21.00
2022-09-29T19:48:09.493Z,17.55
2022-09-29T19:50:55.781Z,19.63
2022-09-29T19:53:23.022Z,20.73
2022-09-29T19:55:51.959Z,19.20
2022-09-29T19:58:19.179Z,18.30
2022-09-29T20:00:46.401Z,20.27
2022-09-29T20:03:13.618Z,17.05
2022-09-29T20:05:40.944Z,20.73
2022-09-29T20:08:08.432Z,20.25
2022-09-29T20:10:36.296Z,19.20
2022-09-29T20:13:03.592Z,23.85
2022-09-29T20:15:30.852Z,21.02
2022-09-29T20:17:58.023Z,20.40
2022-09-29T20:20:25.214Z,22.67
2022-09-29T20:22:53.518Z,24.25
2022-09-29T20:25:21.157Z,23.58
2022-09-29T20:27:51.784Z,23.42
2022-09-29T20:30:20.953Z,23.35
2022-09-29T20:32:50.720Z,28.70
2022-09-29T20:35:17.871Z,30.60
2022-09-29T20:37:47.036Z,35.38
2022-09-29T20:40:14.410Z,34.03
2022-09-29T20:42:41.911Z,36.95
2022-09-29T20:45:09.639Z,37.85
2022-09-29T20:47:37.042Z,34.45
2022-09-29T20:50:05.346Z,32.45
2022-09-29T20:52:32.595Z,29.83
2022-09-29T20:55:02.460Z,25.33
2022-09-29T20:57:29.652Z,27.90
2022-09-29T20:59:56.956Z,27.85
2022-09-29T21:02:24.515Z,23.52
2022-09-29T21:04:51.778Z,27.50
2022-09-29T21:07:51.634Z,25.92
2022-09-29T21:10:18.941Z,29.10
2022-09-29T21:12:46.167Z,24.73
2022-09-29T21:15:13.458Z,28.25
2022-09-29T21:17:40.792Z,25.77
2022-09-29T21:20:08.193Z,23.60
2022-09-29T21:22:35.589Z,24.20
2022-09-29T21:25:03.005Z,25.05
2022-09-29T21:27:30.180Z,25.02
2022-09-29T21:29:57.673Z,25.13
2022-09-29T21:32:24.873Z,23.23
2022-09-29T21:34:52.121Z,26.02
2022-09-29T21:37:19.454Z,23.83
2022-09-29T21:39:46.586Z,24.50
2022-09-29T21:42:14.380Z,26.17
2022-09-29T21:44:41.699Z,26.42
2022-09-29T21:47:08.882Z,25.17
2022-09-29T21:49:36.034Z,25.08
2022-09-29T21:52:03.358Z,21.73
2022-09-29T21:54:30.555Z,22.55
2022-09-29T21:56:57.870Z,24.30
2022-09-29T21:59:25.225Z,25.02
2022-09-29T22:01:53.032Z,26.10
2022-09-29T22:04:20.944Z,23.30
2022-09-29T22:06:48.775Z,23.20
2022-09-29T22:09:19.781Z,24.80
2022-09-29T22:11:50.368Z,21.05
2022-09-29T22:14:17.834Z,24.38
2022-09-29T22:16:45.117Z,21.73
2022-09-29T22:19:28.737Z,22.70
2022-09-29T22:21:56.072Z,23.02
2022-09-29T22:24:27.849Z,24.92
2022-09-29T22:26:55.313Z,23.15
2022-09-29T22:29:22.726Z,21.67
2022-09-29T22:31:50.240Z,22.50
2022-09-29T22:34:17.458Z,21.48
2022-09-29T22:36:44.612Z,22.70
2022-09-29T22:39:12.018Z,23.52
2022-09-29T22:41:41.060Z,27.27
2022-09-29T22:44:08.679Z,27.88
2022-09-29T22:46:36.170Z,28.25
2022-09-29T22:49:03.762Z,22.75
2022-09-29T22:51:30.959Z,27.27
2022-09-29T22:53:58.271Z,23.25
2022-09-29T22:56:29.041Z,21.58
2022-09-29T22:59:01.382Z,20.63
2022-09-29T23:01:29.009Z,24.77
2022-09-29T23:03:56.359Z,25.33
2022-09-29T23:06:23.698Z,24.35
2022-09-29T23:08:50.882Z,25.25
2022-09-29T23:11:19.685Z,26.63
2022-09-29T23:13:47.243Z,28.92
2022-09-29T23:16:15.265Z,31.92
2022-09-29T23:18:45.870Z,32.35
2022-09-29T23:21:14.857Z,34.78
2022-09-29T23:23:42.477Z,37.47
2022-09-29T23:26:09.613Z,32.83
2022-09-29T23:28:37.013Z,26.23
2022-09-29T23:31:05.124Z,25.75
2022-09-29T23:33:32.383Z,25.08
2022-09-29T23:36:08.534Z,23.92
2022-09-29T23:38:54.407Z,25.25
2022-09-29T23:41:21.899Z,22.75
2022-09-29T23:43:49.061Z,23.90
2022-09-29T23:46:16.240Z,23.65
2022-09-29T23:48:43.610Z,24.00
2022-09-29T23:51:10.782Z,23.13
2022-09-29T23:53:37.929Z,22.38
2022-09-29T23:56:05.266Z,22.35
2022-09-29T23:58:32.412Z,24.80
